AVA344 KFLL-MGGT
Flight info
| Callsign | AVA344 |
|---|---|
| Flight time | N/A |
| Altitude | 36000 |
| Route | GLADZ4 LULLS Y262 MAXIM UG765 TIKIS TIKIS2C |
| Aircraft | A320/M-SDE3FGHIRWY/L |
Departure
| Time | 2026-05-04 11:12 |
|---|---|
| Airport | Fort Lauderdale Hollywood International Airport (KFLL) |
Arrival
| Time | N/A |
|---|---|
| Airport | La Aurora International Airport (MGGT) |
| Time | Latitude | Longitude | Altitude | Speed | Heading |
|---|---|---|---|---|---|
| 2026-05-04 10:54 | 26.06904 | -80.14584 | 16 ft | 0 kts | 35° |
| 2026-05-04 11:01 | 26.06833 | -80.14605 | 19 ft | 0 kts | 315° |
| 2026-05-04 11:05 | 26.06768 | -80.14881 | 15 ft | 8 kts | 267° |
| 2026-05-04 11:06 | 26.06741 | -80.14922 | 16 ft | 7 kts | 204° |
| 2026-05-04 11:06 | 26.06699 | -80.14910 | 18 ft | 10 kts | 133° |
| 2026-05-04 11:06 | 26.06679 | -80.14795 | 23 ft | 15 kts | 94° |
| 2026-05-04 11:06 | 26.06678 | -80.14706 | 30 ft | 11 kts | 91° |
| 2026-05-04 11:08 | 26.06748 | -80.13929 | 75 ft | 6 kts | 92° |
| 2026-05-04 11:10 | 26.06631 | -80.13567 | 69 ft | 18 kts | 180° |
| 2026-05-04 11:12 | 26.06661 | -80.20334 | 2108 ft | 192 kts | 270° |
| 2026-05-04 11:12 | 26.06597 | -80.21844 | 2556 ft | 200 kts | 268° |
| 2026-05-04 11:12 | 26.06526 | -80.23417 | 2986 ft | 208 kts | 268° |
| 2026-05-04 11:12 | 26.06462 | -80.25094 | 3437 ft | 226 kts | 268° |
| 2026-05-04 11:13 | 26.06071 | -80.26858 | 3889 ft | 248 kts | 241° |
| 2026-05-04 11:13 | 26.05041 | -80.28481 | 4345 ft | 262 kts | 236° |
| 2026-05-04 11:13 | 26.04001 | -80.30164 | 4790 ft | 265 kts | 238° |
| 2026-05-04 11:13 | 26.02984 | -80.31892 | 4987 ft | 267 kts | 238° |
| 2026-05-04 11:14 | 26.01979 | -80.33624 | 5021 ft | 266 kts | 239° |
| 2026-05-04 11:14 | 26.00974 | -80.35351 | 5032 ft | 266 kts | 238° |
| 2026-05-04 11:14 | 25.99979 | -80.37045 | 5030 ft | 266 kts | 238° |
| 2026-05-04 11:16 | 25.92273 | -80.49979 | 6284 ft | 334 kts | 238° |
| 2026-05-04 11:16 | 25.90976 | -80.52137 | 6665 ft | 337 kts | 238° |
| 2026-05-04 11:16 | 25.89672 | -80.54304 | 7043 ft | 338 kts | 238° |
| 2026-05-04 11:17 | 25.88367 | -80.56472 | 7423 ft | 338 kts | 238° |
| 2026-05-04 11:17 | 25.87059 | -80.58646 | 7805 ft | 339 kts | 239° |
| 2026-05-04 11:19 | 25.78114 | -80.74234 | 10547 ft | 343 kts | 255° |
| 2026-05-04 11:19 | 25.77420 | -80.76763 | 10933 ft | 342 kts | 255° |
| 2026-05-04 11:19 | 25.76739 | -80.79293 | 11307 ft | 342 kts | 255° |
| 2026-05-04 11:19 | 25.76060 | -80.81823 | 11698 ft | 342 kts | 255° |
| 2026-05-04 11:20 | 25.75380 | -80.84346 | 12096 ft | 341 kts | 255° |
| 2026-05-04 11:20 | 25.74696 | -80.86868 | 12495 ft | 341 kts | 255° |
| 2026-05-04 11:20 | 25.74020 | -80.89354 | 12892 ft | 342 kts | 254° |
| 2026-05-04 11:20 | 25.73332 | -80.91874 | 13306 ft | 341 kts | 254° |
| 2026-05-04 11:22 | 25.68457 | -81.09659 | 15984 ft | 351 kts | 254° |
| 2026-05-04 11:22 | 25.67741 | -81.12255 | 16364 ft | 354 kts | 253° |
| 2026-05-04 11:23 | 25.67019 | -81.14880 | 16749 ft | 358 kts | 253° |
| 2026-05-04 11:23 | 25.66291 | -81.17532 | 17162 ft | 361 kts | 253° |
| 2026-05-04 11:24 | 25.57584 | -81.31316 | 19551 ft | 392 kts | 224° |
| 2026-05-04 11:25 | 25.55470 | -81.33254 | 19966 ft | 396 kts | 224° |
| 2026-05-04 11:25 | 25.53354 | -81.35227 | 20357 ft | 399 kts | 225° |
| 2026-05-04 11:25 | 25.51249 | -81.37242 | 20766 ft | 402 kts | 226° |
| 2026-05-04 11:26 | 25.47078 | -81.41348 | 21591 ft | 406 kts | 227° |
| 2026-05-04 11:27 | 25.32133 | -81.56183 | 24482 ft | 417 kts | 227° |
| 2026-05-04 11:28 | 25.29966 | -81.58320 | 24866 ft | 418 kts | 227° |
| 2026-05-04 11:28 | 25.27790 | -81.60463 | 25257 ft | 419 kts | 227° |
| 2026-05-04 11:28 | 25.25642 | -81.62578 | 25647 ft | 420 kts | 227° |
| 2026-05-04 11:28 | 25.23460 | -81.64725 | 26048 ft | 421 kts | 228° |
| 2026-05-04 11:29 | 25.21271 | -81.66876 | 26450 ft | 421 kts | 228° |
| 2026-05-04 11:29 | 25.19081 | -81.69025 | 26862 ft | 422 kts | 228° |
| 2026-05-04 11:29 | 25.16825 | -81.71108 | 27285 ft | 428 kts | 220° |
| 2026-05-04 11:29 | 25.14177 | -81.72688 | 27713 ft | 437 kts | 212° |
| 2026-05-04 11:31 | 24.93603 | -81.79681 | 30717 ft | 439 kts | 206° |
| 2026-05-04 11:33 | 24.73600 | -81.86955 | 33627 ft | 425 kts | 205° |
| 2026-05-04 11:33 | 24.70794 | -81.87955 | 34059 ft | 422 kts | 206° |
| 2026-05-04 11:33 | 24.68044 | -81.88936 | 34439 ft | 420 kts | 206° |
| 2026-05-04 11:34 | 24.65278 | -81.89925 | 34830 ft | 416 kts | 206° |
| 2026-05-04 11:34 | 24.62536 | -81.90905 | 35228 ft | 413 kts | 206° |
| 2026-05-04 11:34 | 24.59819 | -81.91876 | 35633 ft | 409 kts | 206° |
| 2026-05-04 11:34 | 24.57119 | -81.92841 | 35946 ft | 408 kts | 207° |
| 2026-05-04 11:35 | 24.52596 | -81.94473 | 36033 ft | 416 kts | 207° |
| 2026-05-04 11:35 | 24.47320 | -81.96945 | 36034 ft | 404 kts | 223° |
| 2026-05-04 11:36 | 24.42641 | -82.01799 | 36029 ft | 396 kts | 234° |
| 2026-05-04 11:36 | 24.39067 | -82.06397 | 36031 ft | 396 kts | 234° |
| 2026-05-04 11:37 | 24.36039 | -82.10176 | 36032 ft | 397 kts | 233° |
| 2026-05-04 11:37 | 24.32268 | -82.14610 | 36033 ft | 398 kts | 232° |
| 2026-05-04 11:38 | 24.28432 | -82.19000 | 36037 ft | 398 kts | 232° |
| 2026-05-04 11:38 | 24.24611 | -82.23394 | 36032 ft | 398 kts | 232° |
| 2026-05-04 11:39 | 24.20811 | -82.27804 | 36032 ft | 398 kts | 232° |
| 2026-05-04 11:41 | 24.07486 | -82.43230 | 36014 ft | 400 kts | 232° |
| 2026-05-04 11:41 | 24.03654 | -82.47652 | 36017 ft | 400 kts | 232° |
| 2026-05-04 11:42 | 23.99849 | -82.52047 | 36022 ft | 400 kts | 232° |
| 2026-05-04 11:42 | 23.96199 | -82.56626 | 36022 ft | 398 kts | 235° |
| 2026-05-04 11:43 | 23.92700 | -82.61313 | 36025 ft | 398 kts | 236° |
| 2026-05-04 11:43 | 23.89180 | -82.65993 | 35994 ft | 399 kts | 235° |
| 2026-05-04 11:44 | 23.85619 | -82.70642 | 36000 ft | 400 kts | 234° |
| 2026-05-04 11:44 | 23.82033 | -82.75287 | 36008 ft | 400 kts | 234° |
| 2026-05-04 11:45 | 23.78442 | -82.79937 | 36019 ft | 401 kts | 235° |
| 2026-05-04 11:45 | 23.74851 | -82.84595 | 36017 ft | 401 kts | 235° |
| 2026-05-04 11:46 | 23.71283 | -82.89225 | 36022 ft | 401 kts | 235° |
| 2026-05-04 11:46 | 23.67688 | -82.93885 | 36028 ft | 401 kts | 235° |
| 2026-05-04 11:47 | 23.64091 | -82.98544 | 36030 ft | 402 kts | 234° |
| 2026-05-04 11:47 | 23.60487 | -83.03199 | 36025 ft | 402 kts | 234° |
| 2026-05-04 11:48 | 23.56881 | -83.07847 | 36002 ft | 402 kts | 234° |
| 2026-05-04 11:48 | 23.53274 | -83.12500 | 36017 ft | 402 kts | 234° |
| 2026-05-04 11:49 | 23.49656 | -83.17158 | 36023 ft | 403 kts | 234° |
| 2026-05-04 11:49 | 23.46034 | -83.21817 | 36024 ft | 403 kts | 234° |
| 2026-05-04 11:50 | 23.42433 | -83.26452 | 36027 ft | 404 kts | 234° |
| 2026-05-04 11:50 | 23.38802 | -83.31129 | 36030 ft | 404 kts | 234° |
| 2026-05-04 11:51 | 23.35166 | -83.35796 | 36033 ft | 404 kts | 234° |
| 2026-05-04 11:51 | 23.31523 | -83.40463 | 36036 ft | 404 kts | 234° |
| 2026-05-04 11:52 | 23.27882 | -83.45122 | 36007 ft | 404 kts | 234° |
| 2026-05-04 11:52 | 23.24236 | -83.49783 | 36011 ft | 405 kts | 234° |
| 2026-05-04 11:53 | 23.20614 | -83.54418 | 36011 ft | 405 kts | 234° |
| 2026-05-04 11:53 | 23.16957 | -83.59094 | 36015 ft | 406 kts | 234° |
| 2026-05-04 11:55 | 23.02269 | -83.77811 | 36027 ft | 407 kts | 234° |
| 2026-05-04 11:56 | 22.98613 | -83.82457 | 36008 ft | 408 kts | 234° |
| 2026-05-04 11:56 | 22.94926 | -83.87136 | 36013 ft | 408 kts | 234° |
| 2026-05-04 11:57 | 22.91237 | -83.91818 | 36019 ft | 408 kts | 234° |
| 2026-05-04 11:57 | 22.87541 | -83.96507 | 36021 ft | 409 kts | 234° |
| 2026-05-04 11:58 | 22.83837 | -84.01196 | 36023 ft | 410 kts | 234° |
| 2026-05-04 11:58 | 22.80124 | -84.05890 | 36029 ft | 410 kts | 234° |
| 2026-05-04 11:59 | 22.76435 | -84.10556 | 36033 ft | 410 kts | 234° |
| 2026-05-04 11:59 | 22.72723 | -84.15255 | 36036 ft | 410 kts | 234° |
| 2026-05-04 12:00 | 22.69058 | -84.19988 | 36038 ft | 410 kts | 235° |
| 2026-05-04 12:00 | 22.67210 | -84.22400 | 33882 ft | 435 kts | 234° |
| 2026-05-04 12:00 | 22.65153 | -84.25127 | 31045 ft | 492 kts | 234° |
| 2026-05-04 12:00 | 22.63008 | -84.27970 | 30752 ft | 478 kts | 234° |
| 2026-05-04 12:01 | 22.60915 | -84.30699 | 30007 ft | 471 kts | 234° |
| 2026-05-04 12:01 | 22.58790 | -84.33429 | 28402 ft | 475 kts | 234° |
| 2026-05-04 12:02 | 22.45967 | -84.49642 | 24675 ft | 471 kts | 232° |
| 2026-05-04 12:03 | 22.43708 | -84.52220 | 24237 ft | 474 kts | 230° |
| 2026-05-04 12:03 | 22.41372 | -84.54746 | 23823 ft | 477 kts | 229° |
| 2026-05-04 12:03 | 22.38940 | -84.57204 | 23274 ft | 480 kts | 226° |
| 2026-05-04 12:03 | 22.36329 | -84.59484 | 22637 ft | 485 kts | 220° |
| 2026-05-04 12:04 | 22.33462 | -84.61433 | 22057 ft | 490 kts | 210° |
| 2026-05-04 12:04 | 22.30235 | -84.62620 | 21474 ft | 494 kts | 194° |
| 2026-05-04 12:04 | 22.26801 | -84.62780 | 20862 ft | 496 kts | 178° |
| 2026-05-04 12:04 | 22.23433 | -84.62091 | 19503 ft | 507 kts | 168° |
| 2026-05-04 12:05 | 22.20067 | -84.61139 | 19179 ft | 492 kts | 168° |
| 2026-05-04 12:05 | 22.16793 | -84.60208 | 18894 ft | 482 kts | 168° |
| 2026-05-04 12:05 | 22.13564 | -84.59287 | 18622 ft | 478 kts | 168° |
| 2026-05-04 12:05 | 22.10361 | -84.58373 | 18400 ft | 475 kts | 168° |
| 2026-05-04 12:06 | 22.07176 | -84.57470 | 18312 ft | 472 kts | 169° |
| 2026-05-04 12:06 | 22.03947 | -84.57067 | 18290 ft | 464 kts | 187° |
| 2026-05-04 12:06 | 22.00848 | -84.57857 | 18296 ft | 456 kts | 207° |
| 2026-05-04 12:06 | 21.98257 | -84.59740 | 18296 ft | 448 kts | 227° |
| 2026-05-04 12:07 | 21.96499 | -84.62456 | 18295 ft | 442 kts | 248° |
| 2026-05-04 12:07 | 21.95570 | -84.65602 | 18296 ft | 441 kts | 257° |
| 2026-05-04 12:07 | 21.94641 | -84.68754 | 18296 ft | 442 kts | 250° |
| 2026-05-04 12:07 | 21.93362 | -84.71770 | 18293 ft | 444 kts | 244° |
| 2026-05-04 12:08 | 21.91893 | -84.74646 | 18294 ft | 444 kts | 242° |
| 2026-05-04 12:08 | 21.90328 | -84.77516 | 18293 ft | 445 kts | 241° |
| 2026-05-04 12:08 | 21.88779 | -84.80398 | 18296 ft | 444 kts | 242° |
| 2026-05-04 12:08 | 21.87294 | -84.83315 | 18295 ft | 444 kts | 244° |
| 2026-05-04 12:09 | 21.85878 | -84.86262 | 18293 ft | 444 kts | 245° |
| 2026-05-04 12:09 | 21.84506 | -84.89242 | 18296 ft | 443 kts | 245° |
| 2026-05-04 12:09 | 21.83158 | -84.92226 | 18293 ft | 443 kts | 246° |
| 2026-05-04 12:09 | 21.81810 | -84.95211 | 18294 ft | 443 kts | 245° |
| 2026-05-04 12:10 | 21.80452 | -84.98190 | 18293 ft | 443 kts | 245° |
| 2026-05-04 12:10 | 21.79081 | -85.01164 | 18293 ft | 444 kts | 245° |
| 2026-05-04 12:10 | 21.77721 | -85.04093 | 18293 ft | 444 kts | 245° |
| 2026-05-04 12:10 | 21.76334 | -85.07057 | 18293 ft | 443 kts | 245° |
| 2026-05-04 12:11 | 21.74947 | -85.10014 | 18298 ft | 443 kts | 245° |
| 2026-05-04 12:11 | 21.73559 | -85.12975 | 18293 ft | 443 kts | 245° |
| 2026-05-04 12:11 | 21.72175 | -85.15935 | 18286 ft | 443 kts | 245° |
| 2026-05-04 12:11 | 21.70790 | -85.18902 | 18289 ft | 444 kts | 245° |
| 2026-05-04 12:12 | 21.69402 | -85.21873 | 18291 ft | 445 kts | 245° |
| 2026-05-04 12:12 | 21.68015 | -85.24843 | 18291 ft | 444 kts | 245° |
| 2026-05-04 12:12 | 21.66629 | -85.27808 | 18291 ft | 444 kts | 245° |
| 2026-05-04 12:12 | 21.65238 | -85.30776 | 18291 ft | 444 kts | 245° |
| 2026-05-04 12:13 | 21.63847 | -85.33745 | 18294 ft | 444 kts | 245° |